Terminal Aerodrome Forecast
Issued by NWS

Current Version | Previous Version | Graphics & Text | Print | Product List | Glossary Off
Versions: 1 2 3 4 5 6 7 8 9 10 11 12 13 14 15 16 17 18

000
FTUS41 KILN 281742
TAFLUK
TAF
KLUK 281742Z 2818/2918 13004KT P6SM FEW050 SCT250
     FM290000 00000KT P6SM BKN250
     FM290900 00000KT 5SM BR SCT040 BKN200
     FM291400 20006KT P6SM SCT040 BKN200
     FM291600 21008KT P6SM BKN040=

USA.gov is the U.S. government's official web portal to all federal, state and local government web resources and services.